createdAt,value
2018-12-20T00:01:28.629Z,6.10
2018-12-20T00:03:57.079Z,6.10
2018-12-20T00:06:25.793Z,6.10
2018-12-20T00:08:54.211Z,6.20
2018-12-20T00:11:22.660Z,6.10
2018-12-20T00:13:51.120Z,6.20
2018-12-20T00:16:19.573Z,6.20
2018-12-20T00:18:47.993Z,6.20
2018-12-20T00:21:16.432Z,6.20
2018-12-20T00:23:44.873Z,6.20
2018-12-20T00:26:13.328Z,6.20
2018-12-20T00:28:41.793Z,6.30
2018-12-20T00:31:13.726Z,6.30
2018-12-20T00:33:40.923Z,6.30
2018-12-20T00:36:09.403Z,6.30
2018-12-20T00:38:38.198Z,6.30
2018-12-20T00:41:06.887Z,6.20
2018-12-20T00:43:35.646Z,6.20
2018-12-20T00:46:04.125Z,6.20
2018-12-20T00:48:32.810Z,6.10
2018-12-20T00:51:01.480Z,6.10
2018-12-20T00:53:30.159Z,6.10
2018-12-20T00:55:58.688Z,6.00
2018-12-20T00:58:27.123Z,6.00
2018-12-20T01:00:55.567Z,6.00
2018-12-20T01:03:25.048Z,6.00
2018-12-20T01:05:53.722Z,6.00
2018-12-20T01:08:22.416Z,6.00
2018-12-20T01:10:50.969Z,5.90
2018-12-20T01:13:19.749Z,5.80
2018-12-20T01:15:48.686Z,5.70
2018-12-20T01:18:17.584Z,5.70
2018-12-20T01:20:46.015Z,5.60
2018-12-20T01:23:14.485Z,5.50
2018-12-20T01:25:43.332Z,5.50
2018-12-20T01:28:12.037Z,5.40
2018-12-20T01:30:40.722Z,5.40
2018-12-20T01:33:09.575Z,5.40
2018-12-20T01:35:38.420Z,5.50
2018-12-20T01:38:06.869Z,5.40
2018-12-20T01:40:35.509Z,5.40
2018-12-20T01:43:05.583Z,5.40
2018-12-20T01:45:34.393Z,5.50
2018-12-20T01:48:03.089Z,5.50
2018-12-20T01:50:31.779Z,5.50
2018-12-20T01:53:00.427Z,5.40
2018-12-20T01:55:30.348Z,5.40
2018-12-20T01:57:59.058Z,5.40
2018-12-20T02:00:27.838Z,5.40
2018-12-20T02:02:56.629Z,5.40
2018-12-20T02:05:25.301Z,5.50
2018-12-20T02:07:54.536Z,5.50
2018-12-20T02:10:23.460Z,5.60
2018-12-20T02:12:52.291Z,5.60
2018-12-20T02:15:21.041Z,5.60
2018-12-20T02:17:49.854Z,5.70
2018-12-20T02:20:19.670Z,5.70
2018-12-20T02:22:48.125Z,5.70
2018-12-20T02:25:16.829Z,5.80
2018-12-20T02:27:45.847Z,5.80
2018-12-20T02:30:14.469Z,5.90
2018-12-20T02:32:43.913Z,5.90
2018-12-20T02:35:13.537Z,5.90
2018-12-20T02:37:42.284Z,5.90
2018-12-20T02:40:11.280Z,5.90
2018-12-20T02:42:40.326Z,5.90
2018-12-20T02:45:10.915Z,5.90
2018-12-20T02:47:39.903Z,6.00
2018-12-20T02:50:08.594Z,5.90
2018-12-20T02:52:37.052Z,5.90
2018-12-20T02:55:07.066Z,5.90
2018-12-20T02:57:35.826Z,5.90
2018-12-20T03:00:05.970Z,5.90
2018-12-20T03:02:34.991Z,5.90
2018-12-20T03:05:03.720Z,5.90
2018-12-20T03:07:32.338Z,5.90
2018-12-20T03:10:01.159Z,5.90
2018-12-20T03:12:29.807Z,5.90
2018-12-20T03:14:58.688Z,5.90
2018-12-20T03:17:27.405Z,5.90
2018-12-20T03:19:55.844Z,5.90
2018-12-20T03:22:24.384Z,5.90
2018-12-20T03:24:53.128Z,5.80
2018-12-20T03:27:22.043Z,5.80
2018-12-20T03:29:50.771Z,5.80
2018-12-20T03:32:19.595Z,5.90
2018-12-20T03:34:49.419Z,5.90
2018-12-20T03:37:18.078Z,5.90
2018-12-20T03:39:46.549Z,6.00
2018-12-20T03:42:15.263Z,6.00
2018-12-20T03:44:44.740Z,6.00
2018-12-20T03:47:13.384Z,6.00
2018-12-20T03:49:42.027Z,6.00
2018-12-20T03:52:11.157Z,6.00
2018-12-20T03:54:41.514Z,6.00
2018-12-20T03:57:10.213Z,6.00
2018-12-20T03:59:40.272Z,6.00
2018-12-20T04:02:09.149Z,6.10
2018-12-20T04:04:37.799Z,6.10
2018-12-20T04:07:06.232Z,6.10
2018-12-20T04:09:34.924Z,6.10
2018-12-20T04:12:03.716Z,6.20
2018-12-20T04:14:32.508Z,6.20
2018-12-20T04:17:01.544Z,6.20
2018-12-20T04:19:30.009Z,6.20
2018-12-20T04:21:58.899Z,6.30
2018-12-20T04:24:28.083Z,6.30
2018-12-20T04:26:56.513Z,6.30
2018-12-20T04:29:25.596Z,6.30
2018-12-20T04:31:54.670Z,6.30
2018-12-20T04:34:24.155Z,6.30
2018-12-20T04:36:52.829Z,6.40
2018-12-20T04:39:21.302Z,6.40
2018-12-20T04:41:49.939Z,6.40
2018-12-20T04:44:19.146Z,6.40
2018-12-20T04:46:48.061Z,6.40
2018-12-20T04:49:17.036Z,6.40
2018-12-20T04:51:46.436Z,6.50
2018-12-20T04:54:14.922Z,6.50
2018-12-20T04:56:43.596Z,6.50
2018-12-20T04:59:12.052Z,6.50
2018-12-20T05:01:40.480Z,6.50
2018-12-20T05:04:09.099Z,6.50
2018-12-20T05:06:38.021Z,6.50
2018-12-20T05:09:07.173Z,6.50
2018-12-20T05:11:35.836Z,6.50
2018-12-20T05:14:04.505Z,6.50
2018-12-20T05:16:33.622Z,6.50
2018-12-20T05:19:02.295Z,6.50
2018-12-20T05:21:30.756Z,6.50
2018-12-20T05:24:00.917Z,6.60
2018-12-20T05:26:29.786Z,6.50
2018-12-20T05:28:58.894Z,6.50
2018-12-20T05:31:27.536Z,6.60
2018-12-20T05:33:55.980Z,6.50
2018-12-20T05:36:25.406Z,6.60
2018-12-20T05:38:54.064Z,6.60
2018-12-20T05:41:22.498Z,6.60
2018-12-20T05:43:51.157Z,6.60
2018-12-20T05:46:20.241Z,6.60
2018-12-20T05:48:48.685Z,6.60
2018-12-20T05:51:17.916Z,6.60
2018-12-20T05:53:46.857Z,6.60
2018-12-20T05:56:15.491Z,6.60
2018-12-20T05:58:44.593Z,6.60
2018-12-20T06:01:13.847Z,6.60
2018-12-20T06:03:42.503Z,6.70
2018-12-20T06:06:12.416Z,6.70
2018-12-20T06:08:41.109Z,6.70
2018-12-20T06:11:09.543Z,6.70
2018-12-20T06:13:38.834Z,6.70
2018-12-20T06:16:12.610Z,6.70
2018-12-20T06:18:38.556Z,6.70
2018-12-20T06:21:07.144Z,6.70
2018-12-20T06:23:37.956Z,6.60
2018-12-20T06:26:06.397Z,6.60
2018-12-20T06:28:34.815Z,6.60
2018-12-20T06:31:03.266Z,6.60
2018-12-20T06:33:31.684Z,6.60
2018-12-20T06:36:02.027Z,6.70
2018-12-20T06:38:30.470Z,6.60
2018-12-20T06:40:58.910Z,6.70
2018-12-20T06:43:27.329Z,6.70
2018-12-20T06:45:55.841Z,6.70
2018-12-20T06:48:24.265Z,6.70
2018-12-20T06:50:52.827Z,6.70
2018-12-20T06:53:22.913Z,6.70
2018-12-20T06:55:51.404Z,6.70
2018-12-20T06:58:19.889Z,6.70
2018-12-20T07:00:48.766Z,6.70
2018-12-20T07:03:17.716Z,6.70
2018-12-20T07:05:46.232Z,6.70
2018-12-20T07:08:14.693Z,6.70
2018-12-20T07:10:43.700Z,6.70
2018-12-20T07:13:12.656Z,6.80
2018-12-20T07:15:41.118Z,6.80
2018-12-20T07:18:09.600Z,6.80
2018-12-20T07:20:38.044Z,6.90
2018-12-20T07:23:06.467Z,6.90
2018-12-20T07:25:35.154Z,6.90
2018-12-20T07:28:04.281Z,6.90
2018-12-20T07:30:33.445Z,7.00
2018-12-20T07:33:01.897Z,7.00
2018-12-20T07:35:30.419Z,7.00
2018-12-20T07:37:58.841Z,7.00
2018-12-20T07:40:27.282Z,7.00
2018-12-20T07:42:55.707Z,7.10
2018-12-20T07:45:24.188Z,7.10
2018-12-20T07:47:52.669Z,7.10
2018-12-20T07:50:21.150Z,7.10
2018-12-20T07:52:50.501Z,7.10
2018-12-20T07:55:18.947Z,7.10
2018-12-20T07:57:47.389Z,7.10
2018-12-20T08:00:16.557Z,7.10
2018-12-20T08:02:45.005Z,7.10
2018-12-20T08:05:15.328Z,7.10
2018-12-20T08:07:43.748Z,7.10
2018-12-20T08:10:12.260Z,7.10
2018-12-20T08:12:40.685Z,7.10
2018-12-20T08:15:09.204Z,7.10
2018-12-20T08:17:37.623Z,7.10
2018-12-20T08:20:07.809Z,7.10
2018-12-20T08:22:36.228Z,7.10
2018-12-20T08:25:06.621Z,7.20
2018-12-20T08:27:35.660Z,7.20
2018-12-20T08:30:05.289Z,7.20
2018-12-20T08:32:33.756Z,7.30
2018-12-20T08:35:02.212Z,7.30
2018-12-20T08:37:30.631Z,7.30
2018-12-20T08:39:59.418Z,7.30
2018-12-20T08:42:27.856Z,7.30
2018-12-20T08:44:56.275Z,7.30
2018-12-20T08:47:25.284Z,7.40
2018-12-20T08:49:53.716Z,7.40
2018-12-20T08:52:22.965Z,7.40
2018-12-20T08:54:51.745Z,7.40
2018-12-20T08:57:20.701Z,7.40
2018-12-20T08:59:51.852Z,7.50
2018-12-20T09:02:21.264Z,7.50
2018-12-20T09:04:49.736Z,7.50
2018-12-20T09:07:18.168Z,7.50
2018-12-20T09:09:46.633Z,7.50
2018-12-20T09:12:15.208Z,7.50
2018-12-20T09:14:43.639Z,7.50
2018-12-20T09:17:12.104Z,7.50
2018-12-20T09:19:40.534Z,7.50
2018-12-20T09:22:08.974Z,7.50
2018-12-20T09:24:37.555Z,7.60
2018-12-20T09:27:06.008Z,7.60
2018-12-20T09:29:35.738Z,7.70
2018-12-20T09:32:04.239Z,7.70
2018-12-20T09:34:32.872Z,7.70
2018-12-20T09:37:01.375Z,7.70
2018-12-20T09:39:29.870Z,7.70
2018-12-20T09:41:58.836Z,7.70
2018-12-20T09:44:27.289Z,7.80
2018-12-20T09:46:57.502Z,7.80
2018-12-20T09:49:26.847Z,7.80
2018-12-20T09:51:55.843Z,7.80
2018-12-20T09:54:24.281Z,7.90
2018-12-20T09:56:52.720Z,7.90
2018-12-20T09:59:22.217Z,8.00
2018-12-20T10:01:52.197Z,8.00
2018-12-20T10:04:20.760Z,8.20
2018-12-20T10:06:49.233Z,8.20
2018-12-20T10:09:17.679Z,8.20
2018-12-20T10:11:46.756Z,8.20
2018-12-20T10:14:16.876Z,8.30
2018-12-20T10:16:45.532Z,8.30
2018-12-20T10:19:15.637Z,8.40
2018-12-20T10:21:45.653Z,8.40
2018-12-20T10:24:14.059Z,8.50
2018-12-20T10:26:42.500Z,8.50
2018-12-20T10:29:10.941Z,8.50
2018-12-20T10:31:39.384Z,8.50
2018-12-20T10:34:08.982Z,8.60
2018-12-20T10:36:39.055Z,8.80
2018-12-20T10:39:07.612Z,8.90
2018-12-20T10:41:36.068Z,9.00
2018-12-20T10:44:05.332Z,9.00
2018-12-20T10:46:35.969Z,9.00
2018-12-20T10:49:04.591Z,9.10
2018-12-20T10:51:36.249Z,9.00
2018-12-20T10:54:06.823Z,9.00
2018-12-20T10:56:35.988Z,8.90
2018-12-20T10:59:05.371Z,8.90
2018-12-20T11:01:41.342Z,8.80
2018-12-20T11:04:15.576Z,8.70
2018-12-20T11:06:50.856Z,8.70
2018-12-20T11:09:24.733Z,8.70
2018-12-20T11:11:58.587Z,8.70
2018-12-20T11:14:28.045Z,8.70
2018-12-20T11:17:00.547Z,8.70
2018-12-20T11:19:29.816Z,8.60
2018-12-20T11:21:59.212Z,8.60
2018-12-20T11:24:28.269Z,8.60
2018-12-20T11:26:57.652Z,8.60
2018-12-20T11:29:26.322Z,8.60
2018-12-20T11:31:57.737Z,8.60
2018-12-20T11:34:29.640Z,8.70
2018-12-20T11:37:01.116Z,8.70
2018-12-20T11:39:30.150Z,8.80
2018-12-20T11:41:59.906Z,8.80
2018-12-20T11:44:28.341Z,8.80
2018-12-20T11:46:57.444Z,8.80
2018-12-20T11:49:26.392Z,8.80
2018-12-20T11:51:54.817Z,8.80
2018-12-20T11:54:23.513Z,8.80
2018-12-20T11:56:52.337Z,8.80
2018-12-20T11:59:22.131Z,8.70
2018-12-20T12:01:50.572Z,8.70
2018-12-20T12:04:19.132Z,8.60
2018-12-20T12:06:48.428Z,8.60
2018-12-20T12:09:16.872Z,8.60
2018-12-20T12:11:45.369Z,8.60
2018-12-20T12:14:14.352Z,8.60
2018-12-20T12:16:42.829Z,8.70
2018-12-20T12:19:11.275Z,8.60
2018-12-20T12:21:40.193Z,8.60
2018-12-20T12:24:10.911Z,8.60
2018-12-20T12:26:39.523Z,8.60
2018-12-20T12:29:09.973Z,8.50
2018-12-20T12:31:42.351Z,8.50
2018-12-20T12:34:10.997Z,8.60
2018-12-20T12:36:40.323Z,8.60
2018-12-20T12:39:10.001Z,8.60
2018-12-20T12:41:38.516Z,8.60
2018-12-20T12:44:09.389Z,8.60
2018-12-20T12:46:38.369Z,8.60
2018-12-20T12:49:06.804Z,8.70
2018-12-20T12:51:36.026Z,8.70
2018-12-20T12:54:05.594Z,8.80
2018-12-20T12:56:37.760Z,8.80
2018-12-20T12:59:06.215Z,8.80
2018-12-20T13:01:34.803Z,8.90
2018-12-20T13:04:04.300Z,8.80
2018-12-20T13:06:35.205Z,8.80
2018-12-20T13:09:07.324Z,8.80
2018-12-20T13:11:36.644Z,8.80
2018-12-20T13:14:07.093Z,8.80
2018-12-20T13:16:35.611Z,8.70
2018-12-20T13:19:04.067Z,8.70
2018-12-20T13:21:34.032Z,8.60
2018-12-20T13:24:02.592Z,8.60
2018-12-20T13:26:31.918Z,8.60
2018-12-20T13:29:03.155Z,8.60
2018-12-20T13:31:31.601Z,8.60
2018-12-20T13:34:00.852Z,8.60
2018-12-20T13:36:29.636Z,8.50
2018-12-20T13:38:59.041Z,8.50
2018-12-20T13:41:27.497Z,8.50
2018-12-20T13:43:55.960Z,8.50
2018-12-20T13:46:25.247Z,8.40
2018-12-20T13:48:54.127Z,8.40
2018-12-20T13:51:23.636Z,8.30
2018-12-20T13:53:52.057Z,8.30
2018-12-20T13:56:23.170Z,8.30
2018-12-20T13:58:53.176Z,8.30
2018-12-20T14:01:22.233Z,8.20
2018-12-20T14:03:50.673Z,8.10
2018-12-20T14:06:19.125Z,8.10
2018-12-20T14:08:48.356Z,8.10
2018-12-20T14:11:17.628Z,8.10
2018-12-20T14:13:46.077Z,8.00
2018-12-20T14:16:14.536Z,8.00
2018-12-20T14:18:44.099Z,8.00
2018-12-20T14:21:15.762Z,8.00
2018-12-20T14:23:44.909Z,7.90
2018-12-20T14:26:15.245Z,7.90
2018-12-20T14:28:44.454Z,7.90
2018-12-20T14:31:13.175Z,7.90
2018-12-20T14:33:42.501Z,7.80
2018-12-20T14:36:11.026Z,7.80
2018-12-20T14:38:39.985Z,7.70
2018-12-20T14:41:09.111Z,7.70
2018-12-20T14:43:40.025Z,7.70
2018-12-20T14:46:09.439Z,7.60
2018-12-20T14:48:39.455Z,7.60
2018-12-20T14:51:10.301Z,7.60
2018-12-20T14:53:39.245Z,7.60
2018-12-20T14:56:09.420Z,7.70
2018-12-20T14:58:38.556Z,7.70
2018-12-20T15:01:08.399Z,7.70
2018-12-20T15:03:39.315Z,7.70
2018-12-20T15:06:08.400Z,7.70
2018-12-20T15:08:36.821Z,7.70
2018-12-20T15:11:05.971Z,7.70
2018-12-20T15:13:35.176Z,7.70
2018-12-20T15:16:04.410Z,7.70
2018-12-20T15:18:32.892Z,7.70
2018-12-20T15:21:01.457Z,7.70
2018-12-20T15:23:29.871Z,7.70
2018-12-20T15:25:58.306Z,7.50
2018-12-20T15:28:27.661Z,7.60
2018-12-20T15:30:56.099Z,7.60
2018-12-20T15:33:24.511Z,7.50
2018-12-20T15:35:52.958Z,7.50
2018-12-20T15:38:21.378Z,7.50
2018-12-20T15:40:49.811Z,7.50
2018-12-20T15:43:18.800Z,7.50
2018-12-20T15:45:47.228Z,7.50
2018-12-20T15:48:16.264Z,7.50
2018-12-20T15:50:45.805Z,7.40
2018-12-20T15:53:14.704Z,7.40
2018-12-20T15:55:43.973Z,7.40
2018-12-20T15:58:12.735Z,7.40
2018-12-20T16:00:41.229Z,7.40
2018-12-20T16:03:11.104Z,7.40
2018-12-20T16:05:39.521Z,7.30
2018-12-20T16:08:08.740Z,7.30
2018-12-20T16:10:37.719Z,7.30
2018-12-20T16:13:07.077Z,7.30
2018-12-20T16:15:35.496Z,7.30
2018-12-20T16:18:04.065Z,7.30
2018-12-20T16:20:32.790Z,7.30
2018-12-20T16:23:03.244Z,7.30
2018-12-20T16:25:31.672Z,7.30
2018-12-20T16:28:00.181Z,7.30
2018-12-20T16:30:28.633Z,7.30
2018-12-20T16:32:58.550Z,7.20
2018-12-20T16:35:28.688Z,7.20
2018-12-20T16:37:57.988Z,7.20
2018-12-20T16:40:26.409Z,7.20
2018-12-20T16:42:55.666Z,7.20
2018-12-20T16:45:27.835Z,7.20
2018-12-20T16:47:56.280Z,7.20
2018-12-20T16:50:25.454Z,7.20
2018-12-20T16:52:54.721Z,7.20
2018-12-20T16:55:23.457Z,7.20
2018-12-20T16:57:55.065Z,7.20
2018-12-20T17:00:24.436Z,7.20
2018-12-20T17:02:55.045Z,7.20
2018-12-20T17:05:26.380Z,7.20
2018-12-20T17:07:55.608Z,7.20
2018-12-20T17:10:24.324Z,7.20
2018-12-20T17:12:52.784Z,7.20
2018-12-20T17:15:22.119Z,7.20
2018-12-20T17:17:50.556Z,7.20
2018-12-20T17:20:18.982Z,7.20
2018-12-20T17:22:48.396Z,7.20
2018-12-20T17:25:17.847Z,7.20
2018-12-20T17:27:47.431Z,7.20
2018-12-20T17:30:19.009Z,7.20
2018-12-20T17:32:48.060Z,7.20
2018-12-20T17:35:22.285Z,7.20
2018-12-20T17:37:51.148Z,7.20
2018-12-20T17:40:21.676Z,7.20
2018-12-20T17:42:51.054Z,7.20
2018-12-20T17:45:20.847Z,7.20
2018-12-20T17:47:50.168Z,7.20
2018-12-20T17:50:20.025Z,7.20
2018-12-20T17:52:51.843Z,7.20
2018-12-20T17:55:22.032Z,7.20
2018-12-20T17:57:51.324Z,7.20
2018-12-20T18:00:19.746Z,7.20
2018-12-20T18:02:48.915Z,7.20
2018-12-20T18:05:17.769Z,7.20
2018-12-20T18:07:46.239Z,7.20
2018-12-20T18:10:15.341Z,7.10
2018-12-20T18:12:45.079Z,7.10
2018-12-20T18:15:17.248Z,7.10
2018-12-20T18:17:46.191Z,7.10
2018-12-20T18:20:16.632Z,7.10
2018-12-20T18:22:46.573Z,7.10
2018-12-20T18:25:15.041Z,7.20
2018-12-20T18:27:43.483Z,7.20
2018-12-20T18:30:15.605Z,7.20
2018-12-20T18:32:45.971Z,7.10
2018-12-20T18:35:15.436Z,7.20
2018-12-20T18:37:44.849Z,7.10
2018-12-20T18:40:13.349Z,7.10
2018-12-20T18:42:42.333Z,7.10
2018-12-20T18:45:10.921Z,7.10
2018-12-20T18:47:39.941Z,7.10
2018-12-20T18:50:09.503Z,7.10
2018-12-20T18:52:38.850Z,7.10
2018-12-20T18:55:07.425Z,7.10
2018-12-20T18:57:37.510Z,7.10
2018-12-20T19:00:09.103Z,7.10
2018-12-20T19:02:39.103Z,7.10
2018-12-20T19:05:08.834Z,7.10
2018-12-20T19:07:39.173Z,7.20
2018-12-20T19:10:09.327Z,7.20
2018-12-20T19:12:39.890Z,7.20
2018-12-20T19:15:09.375Z,7.20
2018-12-20T19:17:38.506Z,7.20
2018-12-20T19:20:16.025Z,7.20
2018-12-20T19:22:41.626Z,7.20
2018-12-20T19:25:10.831Z,7.20
2018-12-20T19:27:39.287Z,7.20
2018-12-20T19:30:09.144Z,7.20
2018-12-20T19:32:39.088Z,7.20
2018-12-20T19:35:08.880Z,7.20
2018-12-20T19:37:37.439Z,7.20
2018-12-20T19:40:08.872Z,7.20
2018-12-20T19:42:38.059Z,7.20
2018-12-20T19:45:07.147Z,7.20
2018-12-20T19:47:35.654Z,7.20
2018-12-20T19:50:06.596Z,7.20
2018-12-20T19:52:35.760Z,7.20
2018-12-20T19:55:06.622Z,7.30
2018-12-20T19:57:36.504Z,7.30
2018-12-20T20:00:10.665Z,7.30
2018-12-20T20:02:41.284Z,7.30
2018-12-20T20:05:11.082Z,7.30
2018-12-20T20:07:41.172Z,7.30
2018-12-20T20:10:10.526Z,7.30
2018-12-20T20:12:39.997Z,7.30
2018-12-20T20:15:16.382Z,7.30
2018-12-20T20:17:40.128Z,7.30
2018-12-20T20:20:13.755Z,7.30
2018-12-20T20:22:41.946Z,7.30
2018-12-20T20:25:11.275Z,7.30
2018-12-20T20:27:43.517Z,7.40
2018-12-20T20:30:13.953Z,7.40
2018-12-20T20:32:46.304Z,7.40
2018-12-20T20:35:18.259Z,7.40
2018-12-20T20:37:48.120Z,7.40
2018-12-20T20:40:16.576Z,7.40
2018-12-20T20:42:46.523Z,7.40
2018-12-20T20:45:17.075Z,7.40
2018-12-20T20:47:46.236Z,7.50
2018-12-20T20:50:22.018Z,7.50
2018-12-20T20:52:45.898Z,7.50
2018-12-20T20:55:17.352Z,7.50
2018-12-20T20:57:48.571Z,7.50
2018-12-20T21:00:18.089Z,7.50
2018-12-20T21:02:48.474Z,7.50
2018-12-20T21:05:18.792Z,7.50
2018-12-20T21:07:48.092Z,7.50
2018-12-20T21:10:16.796Z,7.50
2018-12-20T21:12:47.816Z,7.50
2018-12-20T21:15:16.821Z,7.50
2018-12-20T21:17:46.728Z,7.50
2018-12-20T21:20:16.588Z,7.50
2018-12-20T21:22:46.331Z,7.60
2018-12-20T21:25:14.812Z,7.50
2018-12-20T21:27:44.397Z,7.50
2018-12-20T21:30:13.924Z,7.50
2018-12-20T21:32:44.929Z,7.60
2018-12-20T21:35:15.197Z,7.60
2018-12-20T21:37:44.325Z,7.60
2018-12-20T21:40:12.811Z,7.60
2018-12-20T21:42:41.845Z,7.60
2018-12-20T21:45:12.102Z,7.60
2018-12-20T21:47:41.509Z,7.60
2018-12-20T21:50:10.021Z,7.60
2018-12-20T21:52:39.457Z,7.60
2018-12-20T21:55:08.166Z,7.60
2018-12-20T21:57:36.608Z,7.60
2018-12-20T22:00:08.486Z,7.60
2018-12-20T22:02:37.705Z,7.60
2018-12-20T22:05:07.328Z,7.60
2018-12-20T22:07:35.815Z,7.60
2018-12-20T22:10:07.019Z,7.60
2018-12-20T22:12:36.316Z,7.60
2018-12-20T22:15:06.936Z,7.60
2018-12-20T22:17:35.397Z,7.60
2018-12-20T22:20:04.430Z,7.60
2018-12-20T22:22:32.859Z,7.60
2018-12-20T22:25:02.366Z,7.60
2018-12-20T22:27:31.805Z,7.60
2018-12-20T22:30:00.958Z,7.60
2018-12-20T22:32:32.246Z,7.60
2018-12-20T22:35:01.701Z,7.60
2018-12-20T22:37:31.145Z,7.60
2018-12-20T22:40:00.008Z,7.60
2018-12-20T22:42:28.448Z,7.70
2018-12-20T22:44:59.524Z,7.60
2018-12-20T22:47:28.526Z,7.60
2018-12-20T22:49:57.609Z,7.60
2018-12-20T22:52:27.823Z,7.60
2018-12-20T22:54:56.768Z,7.60
2018-12-20T22:57:25.213Z,7.60
2018-12-20T22:59:53.627Z,7.60
2018-12-20T23:02:22.079Z,7.60
2018-12-20T23:04:51.013Z,7.60
2018-12-20T23:07:19.687Z,7.60
2018-12-20T23:09:48.616Z,7.60
2018-12-20T23:12:18.083Z,7.60
2018-12-20T23:14:47.076Z,7.60
2018-12-20T23:17:16.912Z,7.60
2018-12-20T23:19:45.328Z,7.50
2018-12-20T23:22:14.332Z,7.50
2018-12-20T23:24:42.752Z,7.40
2018-12-20T23:27:11.214Z,7.40
2018-12-20T23:29:39.659Z,7.30
2018-12-20T23:32:08.191Z,7.30
2018-12-20T23:34:36.636Z,7.30
2018-12-20T23:37:07.702Z,7.30
2018-12-20T23:39:36.544Z,7.20
2018-12-20T23:42:06.701Z,7.20
2018-12-20T23:44:36.047Z,7.20
2018-12-20T23:47:04.565Z,7.20
2018-12-20T23:49:33.032Z,7.20
2018-12-20T23:52:03.308Z,7.20
2018-12-20T23:54:31.744Z,7.20
2018-12-20T23:57:00.221Z,7.20
2018-12-20T23:59:28.896Z,7.20
